This is the latest recevied weather packets stored in our database for station/object YO8SSH-13. If no packets are shown the sender has not sent any weather packets the latest 1 day(s).
| Time | Temp. | Humidity | Pressure | Rain* | Wind** | Luminosity | Snow |
|---|---|---|---|---|---|---|---|
| 1777978448 | 28.33° C | 23% | 1012 hPa | 0 mm | 3.58 m/s, 112° | - | - |
| 1777977547 | 28.33° C | 23% | 1012 hPa | 0 mm | 0 m/s | - | - |
| 1777976647 | 28.33° C | 25% | 1012 hPa | 0 mm | 0.89 m/s, 90° | - | - |
| 1777975746 | 27.78° C | 24% | 1012 hPa | 0 mm | 0.45 m/s, 158° | - | - |
| 1777974847 | 27.78° C | 26% | 1012 hPa | 0 mm | 0.89 m/s, 135° | - | - |
| 1777973947 | 27.22° C | 26% | 1012 hPa | 0 mm | 0 m/s | - | - |
| 1777973047 | 27.22° C | 28% | 1012 hPa | 0 mm | 0 m/s | - | - |
| 1777972148 | 26.67° C | 28% | 1012 hPa | 0 mm | 0.45 m/s, 315° | - | - |
| 1777971248 | 26.11° C | 31% | 1012 hPa | 0 mm | 0.89 m/s, 158° | - | - |
| 1777970347 | 25.56° C | 31% | 1013 hPa | 0 mm | 0.89 m/s, 68° | - | - |
| 1777969447 | 25.56° C | 33% | 1013 hPa | 0 mm | 0 m/s | - | - |
| 1777968549 | 25.56° C | 34% | 1013 hPa | 0 mm | 0.89 m/s, 135° | - | - |
| 1777967647 | 25° C | 35% | 1013 hPa | 0 mm | 0 m/s | - | - |
| 1777966760 | 24.44° C | 37% | 1013 hPa | 0 mm | 0 m/s | - | - |
| 1777965847 | 23.89° C | 38% | 1013 hPa | 0 mm | 0 m/s | - | - |
| 1777964958 | 23.33° C | 38% | 1013 hPa | 0 mm | 0.45 m/s, 158° | - | - |
| 1777964047 | 23.33° C | 39% | 1013 hPa | 0 mm | 0 m/s | - | - |
| 1777963157 | 22.78° C | 41% | 1013 hPa | 0 mm | 0.45 m/s, 315° | - | - |
| 1777962247 | 22.22° C | 43% | 1013 hPa | 0 mm | 0 m/s | - | - |
| 1777961347 | 21.11° C | 46% | 1013 hPa | 0 mm | 0 m/s | - | - |
| 1777960446 | 19.44° C | 49% | 1013 hPa | 0 mm | 0 m/s | - | - |
| 1777959547 | 18.33° C | 52% | 1013 hPa | 0 mm | 0 m/s | - | - |
| 1777958647 | 16.11° C | 58% | 1013 hPa | 0 mm | 0 m/s | - | - |
| 1777957748 | 13.89° C | 62% | 1013 hPa | 0 mm | 0 m/s | - | - |
| 1777956849 | 11.11° C | 66% | 1013 hPa | 0 mm | 0 m/s | - | - |
* Rain latest hour (hover to see other rain measurements)
** Current wind speed in m/s (hover to see current wind gust speed)